Time;durP1;ratioP1;P1;durP2;ratioP2;P2;SDS_P1;SDS_P2;PMS_P1;PMS_P2;Temp;Humidity;BMP_temperature;BMP_pressure;BME280_temperature;BME280_humidity;BME280_pressure;Samples;Min_cycle;Max_cycle;Signal;HPM_P1;HPM_P2
2022/06/27 00:00:14;;;;;;;2.75;1.65;;;23.50;63.90;;;;;;5070442;28;20044;-60
2022/06/27 00:02:40;;;;;;;2.95;1.60;;;23.50;63.90;;;;;;5072902;28;20128;-60
2022/06/27 00:05:06;;;;;;;3.58;1.80;;;23.50;63.90;;;;;;5072520;28;20131;-60
2022/06/27 00:07:31;;;;;;;3.70;1.40;;;23.50;63.90;;;;;;5072242;28;20040;-60
2022/06/27 00:09:57;;;;;;;2.42;1.60;;;23.50;63.90;;;;;;5072409;28;20068;-59
2022/06/27 00:12:22;;;;;;;2.42;1.67;;;23.50;64.00;;;;;;5072734;28;20070;-60
2022/06/27 00:14:48;;;;;;;3.33;1.58;;;23.50;63.90;;;;;;5071089;28;20040;-60
2022/06/27 00:17:14;;;;;;;5.30;1.77;;;23.50;63.90;;;;;;5072734;28;20068;-60
2022/06/27 00:19:40;;;;;;;2.50;1.80;;;23.50;64.00;;;;;;5071271;28;20531;-60
2022/06/27 00:22:05;;;;;;;2.60;1.92;;;23.50;63.90;;;;;;5071937;28;20377;-60
2022/06/27 00:24:32;;;;;;;2.55;1.60;;;23.50;63.90;;;;;;5072219;28;20049;-60
2022/06/27 00:26:57;;;;;;;3.80;1.80;;;23.50;63.90;;;;;;5072514;28;20083;-59
2022/06/27 00:29:23;;;;;;;2.58;1.33;;;23.50;63.90;;;;;;5071437;28;20076;-60
2022/06/27 00:31:48;;;;;;;2.42;1.52;;;23.50;63.90;;;;;;5072417;28;20484;-60
2022/06/27 00:34:14;;;;;;;3.67;1.83;;;23.50;63.90;;;;;;5072628;28;20099;-60
2022/06/27 00:36:39;;;;;;;3.72;1.85;;;23.50;63.90;;;;;;5071547;28;20032;-60
2022/06/27 00:39:05;;;;;;;3.33;1.70;;;23.40;63.90;;;;;;5072249;28;20048;-60
2022/06/27 00:41:30;;;;;;;2.55;1.70;;;23.40;63.90;;;;;;5071384;28;20491;-60
2022/06/27 00:43:56;;;;;;;2.33;1.50;;;23.50;64.00;;;;;;5071849;28;20040;-59
2022/06/27 00:46:22;;;;;;;2.78;1.63;;;23.40;63.90;;;;;;5072423;28;20253;-60
2022/06/27 00:48:47;;;;;;;3.00;1.30;;;23.50;64.00;;;;;;5071385;28;20079;-60
2022/06/27 00:51:13;;;;;;;3.33;1.85;;;23.50;64.00;;;;;;5072343;28;20492;-60
2022/06/27 00:53:38;;;;;;;2.95;1.80;;;23.50;63.90;;;;;;5071087;28;20186;-60
2022/06/27 00:56:04;;;;;;;2.80;1.50;;;23.50;64.00;;;;;;5069976;28;20041;-60
2022/06/27 00:58:30;;;;;;;2.53;1.55;;;23.50;64.00;;;;;;5072220;28;20040;-60
2022/06/27 01:00:55;;;;;;;2.40;1.42;;;23.40;63.90;;;;;;5072059;28;20059;-60
2022/06/27 01:03:21;;;;;;;2.35;1.58;;;23.40;63.90;;;;;;5071313;28;20052;-59
2022/06/27 01:05:53;;;;;;;2.75;1.60;;;23.40;63.90;;;;;;5071898;28;20091;-60
2022/06/27 01:08:19;;;;;;;2.70;1.27;;;23.40;64.00;;;;;;5072053;28;20052;-60
2022/06/27 01:10:45;;;;;;;3.45;1.50;;;23.40;64.00;;;;;;5071152;28;20055;-60
2022/06/27 01:13:11;;;;;;;3.15;1.58;;;23.40;64.00;;;;;;5071947;28;20036;-60
2022/06/27 01:15:36;;;;;;;2.90;1.80;;;23.40;64.00;;;;;;5070653;28;20488;-60
2022/06/27 01:18:03;;;;;;;2.88;1.50;;;23.40;64.00;;;;;;5070080;28;20094;-60
2022/06/27 01:20:28;;;;;;;2.47;1.50;;;23.40;64.00;;;;;;5071281;28;20040;-60
2022/06/27 01:22:54;;;;;;;3.00;1.63;;;23.40;64.00;;;;;;5071736;28;20181;-60
2022/06/27 01:25:19;;;;;;;2.65;1.70;;;23.40;64.00;;;;;;5069864;28;20049;-60
2022/06/27 01:27:45;;;;;;;3.03;1.50;;;23.40;64.00;;;;;;5053527;28;20102;-60
2022/06/27 01:30:11;;;;;;;2.50;1.70;;;23.40;64.00;;;;;;5071569;28;20075;-60
2022/06/27 01:32:37;;;;;;;2.28;1.52;;;23.40;64.00;;;;;;5071393;28;20041;-60
2022/06/27 01:35:03;;;;;;;2.63;1.42;;;23.40;64.00;;;;;;5071550;28;20058;-60
2022/06/27 01:37:29;;;;;;;2.38;1.35;;;23.40;64.00;;;;;;5071979;28;20053;-60
2022/06/27 01:40:00;;;;;;;3.50;1.70;;;23.40;64.00;;;;;;5070847;28;20032;-60
2022/06/27 01:42:25;;;;;;;2.03;1.42;;;23.40;64.00;;;;;;5072142;28;20059;-60
2022/06/27 01:44:51;;;;;;;2.78;2.10;;;23.40;64.00;;;;;;5069630;28;20476;-60
2022/06/27 01:47:16;;;;;;;2.08;1.60;;;23.40;64.00;;;;;;5070912;28;20044;-60
2022/06/27 01:49:42;;;;;;;2.53;1.73;;;23.40;64.10;;;;;;5071641;28;20072;-60
2022/06/27 01:52:08;;;;;;;3.05;1.40;;;23.40;64.10;;;;;;5071176;28;20071;-60
2022/06/27 01:54:33;;;;;;;3.50;1.80;;;23.40;64.10;;;;;;5072710;28;20051;-60
2022/06/27 01:56:59;;;;;;;2.80;1.65;;;23.40;64.10;;;;;;5073814;28;20044;-60
2022/06/27 01:59:29;;;;;;;2.50;1.67;;;23.40;64.10;;;;;;5074236;28;20047;-60
2022/06/27 02:01:55;;;;;;;3.15;1.60;;;23.40;64.10;;;;;;5059588;28;20086;-60
2022/06/27 02:04:21;;;;;;;3.10;1.60;;;23.40;64.10;;;;;;5055058;28;20119;-60
2022/06/27 02:06:46;;;;;;;3.25;1.83;;;23.40;64.10;;;;;;5086281;28;20497;-60
2022/06/27 02:09:13;;;;;;;2.13;1.40;;;23.30;64.10;;;;;;5087336;28;20045;-60
2022/06/27 02:11:39;;;;;;;2.30;1.40;;;23.30;64.10;;;;;;5055173;28;20049;-60
2022/06/27 02:14:05;;;;;;;2.47;1.50;;;23.30;64.10;;;;;;5054110;28;20041;-60
2022/06/27 02:16:31;;;;;;;3.72;1.42;;;23.30;64.10;;;;;;5054936;28;20056;-60
2022/06/27 02:18:56;;;;;;;3.08;1.50;;;23.40;64.10;;;;;;5054783;28;20120;-59
2022/06/27 02:21:24;;;;;;;2.30;1.63;;;23.30;64.10;;;;;;5054593;28;20468;-60
2022/06/27 02:23:50;;;;;;;2.33;1.77;;;23.30;64.20;;;;;;5054265;28;20580;-60
2022/06/27 02:26:15;;;;;;;2.60;1.70;;;23.30;64.20;;;;;;5054891;28;20124;-60
2022/06/27 02:28:42;;;;;;;2.10;1.45;;;23.30;64.10;;;;;;5053539;28;20049;-60
2022/06/27 02:31:07;;;;;;;2.20;1.50;;;23.30;64.20;;;;;;5054291;28;20538;-60
2022/06/27 02:33:41;;;;;;;2.17;1.67;;;23.30;64.10;;;;;;5054686;28;20045;-60
2022/06/27 02:36:09;;;;;;;2.88;1.67;;;23.30;64.20;;;;;;5054097;28;20614;-60
2022/06/27 02:38:36;;;;;;;2.20;1.50;;;23.30;64.10;;;;;;5086385;28;20057;-58
2022/06/27 02:41:03;;;;;;;1.98;1.50;;;23.30;64.10;;;;;;5053592;28;20215;-58
2022/06/27 02:43:32;;;;;;;2.72;1.70;;;23.30;64.10;;;;;;5054479;28;20510;-58
2022/06/27 02:45:57;;;;;;;2.35;1.50;;;23.30;64.20;;;;;;5054068;28;20071;-58
2022/06/27 02:48:24;;;;;;;3.00;1.65;;;23.30;64.20;;;;;;5053675;28;20040;-58
2022/06/27 02:50:51;;;;;;;2.40;1.50;;;23.30;64.20;;;;;;5053806;28;20037;-59
2022/06/27 02:53:18;;;;;;;2.63;1.70;;;23.30;64.20;;;;;;5054519;28;20071;-59
2022/06/27 02:55:44;;;;;;;2.08;1.60;;;23.30;64.20;;;;;;5053145;28;20095;-59
2022/06/27 02:58:12;;;;;;;2.45;1.50;;;23.30;64.20;;;;;;5069434;28;20053;-59
2022/06/27 03:00:40;;;;;;;2.40;1.60;;;23.30;64.20;;;;;;5053965;28;20044;-58
2022/06/27 03:03:07;;;;;;;2.20;1.50;;;23.30;64.90;;;;;;5053551;28;20049;-58
2022/06/27 03:05:33;;;;;;;2.63;1.70;;;23.30;64.30;;;;;;5068884;28;20044;-58
2022/06/27 03:07:58;;;;;;;2.55;1.73;;;23.30;64.30;;;;;;5053768;28;20489;-58
2022/06/27 03:10:24;;;;;;;2.83;1.35;;;23.30;64.30;;;;;;5053450;28;20366;-58
2022/06/27 03:12:50;;;;;;;3.08;1.50;;;23.30;64.30;;;;;;5053437;28;20120;-58
2022/06/27 03:15:15;;;;;;;3.75;1.50;;;23.20;64.30;;;;;;5053772;28;20080;-58
2022/06/27 03:17:41;;;;;;;2.65;1.63;;;23.20;64.30;;;;;;5052752;28;20048;-59
2022/06/27 03:20:07;;;;;;;2.97;1.80;;;23.20;64.30;;;;;;5052335;28;20079;-59
2022/06/27 03:22:33;;;;;;;3.25;1.83;;;23.20;64.30;;;;;;5054434;28;20047;-59
2022/06/27 03:24:58;;;;;;;2.42;1.67;;;23.20;64.30;;;;;;5052815;28;20045;-58
2022/06/27 03:27:24;;;;;;;2.30;1.38;;;23.20;64.30;;;;;;5053598;28;20044;-59
2022/06/27 03:29:49;;;;;;;2.17;1.35;;;23.20;64.40;;;;;;5052910;28;20041;-59
2022/06/27 03:32:15;;;;;;;3.13;1.60;;;23.20;64.40;;;;;;5052825;28;20049;-58
2022/06/27 03:34:40;;;;;;;1.70;1.30;;;23.20;64.40;;;;;;5053157;28;20067;-58
2022/06/27 03:37:07;;;;;;;2.55;1.35;;;23.20;64.40;;;;;;5053640;28;20476;-58
2022/06/27 03:39:33;;;;;;;2.30;1.58;;;23.20;64.40;;;;;;5053218;28;20493;-58
2022/06/27 03:41:58;;;;;;;3.50;1.70;;;23.20;64.40;;;;;;5053157;28;20076;-58
2022/06/27 03:44:24;;;;;;;2.10;1.63;;;23.20;64.40;;;;;;5052648;28;20129;-58
2022/06/27 03:46:49;;;;;;;2.45;1.60;;;23.20;64.40;;;;;;5052936;28;20091;-58
2022/06/27 03:51:59;;;;;;;1.60;1.20;;;23.20;64.40;;;;;;5051958;28;20504;-59
2022/06/27 03:54:25;;;;;;;2.30;1.50;;;23.20;64.40;;;;;;5053027;28;20477;-58
2022/06/27 03:56:50;;;;;;;2.30;1.50;;;23.20;64.50;;;;;;5052889;28;20047;-59
2022/06/27 03:59:16;;;;;;;2.08;1.50;;;23.20;64.50;;;;;;5052076;28;20037;-58
2022/06/27 04:01:42;;;;;;;2.08;1.52;;;23.20;64.50;;;;;;5054951;28;20065;-58
2022/06/27 04:04:07;;;;;;;2.50;1.70;;;23.20;64.50;;;;;;5067941;28;20493;-58
2022/06/27 04:06:33;;;;;;;2.38;1.60;;;23.20;64.50;;;;;;5071886;28;20063;-58
2022/06/27 04:08:58;;;;;;;2.25;1.50;;;23.20;64.50;;;;;;5072328;28;20048;-58
2022/06/27 04:11:24;;;;;;;2.28;1.60;;;23.20;64.50;;;;;;5073099;28;20059;-58
2022/06/27 04:13:49;;;;;;;2.20;1.42;;;23.20;64.50;;;;;;5071502;28;20044;-58
2022/06/27 04:16:15;;;;;;;2.22;1.50;;;23.10;64.50;;;;;;5072176;28;20043;-58
2022/06/27 04:18:41;;;;;;;2.08;1.58;;;23.20;64.50;;;;;;5071237;28;20040;-59
2022/06/27 04:21:06;;;;;;;2.67;1.60;;;23.20;64.50;;;;;;5071947;28;20076;-57
2022/06/27 04:23:32;;;;;;;2.85;1.45;;;23.10;64.50;;;;;;5072692;28;20048;-57
2022/06/27 04:25:58;;;;;;;2.42;1.58;;;23.20;64.50;;;;;;5072396;28;20400;-58
2022/06/27 04:28:23;;;;;;;2.40;1.50;;;23.10;65.10;;;;;;5071707;28;20127;-59
2022/06/27 04:30:49;;;;;;;2.78;1.95;;;23.10;64.50;;;;;;5072314;28;20480;-59
2022/06/27 04:33:15;;;;;;;2.90;1.60;;;23.10;64.50;;;;;;5072537;28;20427;-60
2022/06/27 04:35:41;;;;;;;2.28;1.50;;;23.10;64.50;;;;;;5071615;28;20179;-59
2022/06/27 04:38:07;;;;;;;2.17;1.38;;;23.10;64.50;;;;;;5072711;28;20048;-59
2022/06/27 04:40:32;;;;;;;2.45;1.27;;;23.10;64.50;;;;;;5071711;28;20033;-58
2022/06/27 04:42:59;;;;;;;3.10;1.70;;;23.10;64.50;;;;;;5072132;28;20128;-59
2022/06/27 04:45:25;;;;;;;1.90;1.50;;;23.10;64.50;;;;;;5072339;28;20043;-59
2022/06/27 04:47:52;;;;;;;1.73;1.30;;;23.20;64.60;;;;;;5071451;28;20391;-58
2022/06/27 04:50:18;;;;;;;2.63;1.70;;;23.10;64.50;;;;;;5072437;28;20055;-58
2022/06/27 04:52:44;;;;;;;2.25;1.70;;;23.10;64.50;;;;;;5072320;28;20044;-59
2022/06/27 04:55:10;;;;;;;1.80;1.45;;;23.10;64.50;;;;;;5071526;28;20048;-58
2022/06/27 04:57:37;;;;;;;2.47;1.55;;;23.10;64.60;;;;;;5072449;28;20044;-58
2022/06/27 05:00:08;;;;;;;2.45;1.52;;;23.10;64.60;;;;;;5071697;28;20094;-59
2022/06/27 05:02:34;;;;;;;2.17;1.52;;;23.10;64.60;;;;;;5071575;28;20036;-58
2022/06/27 05:04:59;;;;;;;2.30;1.52;;;23.10;64.60;;;;;;5072156;28;20449;-58
2022/06/27 05:07:25;;;;;;;1.90;1.45;;;23.10;64.70;;;;;;5071911;28;20044;-58
2022/06/27 05:09:54;;;;;;;1.95;1.20;;;23.00;64.60;;;;;;5070786;28;20048;-58
2022/06/27 05:12:20;;;;;;;2.30;1.55;;;23.00;64.60;;;;;;5072423;28;20044;-58
2022/06/27 05:14:46;;;;;;;1.95;1.40;;;23.00;64.60;;;;;;5070283;28;20423;-58
2022/06/27 05:17:12;;;;;;;2.00;1.40;;;23.00;64.60;;;;;;5071088;28;20099;-58
2022/06/27 05:19:37;;;;;;;2.22;1.50;;;23.00;64.70;;;;;;5072254;28;20044;-58
2022/06/27 05:22:03;;;;;;;2.88;1.50;;;23.00;64.70;;;;;;5072056;28;20045;-58
2022/06/27 05:24:28;;;;;;;1.70;1.30;;;23.00;64.70;;;;;;5071096;28;20051;-58
2022/06/27 05:26:54;;;;;;;2.28;1.50;;;23.00;64.70;;;;;;5072018;28;20043;-59
2022/06/27 05:29:20;;;;;;;1.80;1.20;;;23.00;64.70;;;;;;5075392;28;20459;-58
2022/06/27 05:31:46;;;;;;;2.30;1.67;;;23.00;64.70;;;;;;5074816;28;20032;-58
2022/06/27 05:34:12;;;;;;;1.50;1.30;;;23.00;64.70;;;;;;5075929;28;20033;-58
2022/06/27 05:36:38;;;;;;;2.17;1.20;;;23.00;64.70;;;;;;5075967;28;20425;-59
2022/06/27 05:39:05;;;;;;;2.22;1.20;;;23.00;64.80;;;;;;5074565;28;20087;-59
2022/06/27 05:41:30;;;;;;;2.13;1.38;;;23.00;64.70;;;;;;5075743;28;20033;-59
2022/06/27 05:43:56;;;;;;;2.88;1.48;;;23.00;64.70;;;;;;5074588;28;20043;-59
2022/06/27 05:46:23;;;;;;;2.58;1.50;;;23.00;64.70;;;;;;5075124;28;20463;-59
2022/06/27 05:48:50;;;;;;;2.08;1.40;;;23.00;64.70;;;;;;5075267;28;20127;-58
2022/06/27 05:51:15;;;;;;;2.35;1.50;;;23.00;64.70;;;;;;5074911;28;20124;-58
2022/06/27 05:53:43;;;;;;;2.15;1.40;;;23.00;64.80;;;;;;5075305;28;20115;-58
2022/06/27 05:56:09;;;;;;;2.63;1.25;;;23.00;64.80;;;;;;5075209;28;20048;-59
2022/06/27 05:58:35;;;;;;;1.83;1.20;;;23.00;64.80;;;;;;5074072;28;20496;-59
2022/06/27 06:01:01;;;;;;;2.75;1.30;;;23.00;64.80;;;;;;5074926;28;20044;-58
2022/06/27 06:03:27;;;;;;;2.40;1.50;;;23.00;64.80;;;;;;5075097;28;20056;-58
2022/06/27 06:05:54;;;;;;;2.20;1.30;;;23.00;64.80;;;;;;5073849;28;20040;-58
2022/06/27 06:08:21;;;;;;;2.60;1.40;;;23.00;64.80;;;;;;5075077;28;20045;-58
2022/06/27 06:10:47;;;;;;;1.83;1.30;;;23.00;64.80;;;;;;5074502;28;20102;-58
2022/06/27 06:13:13;;;;;;;2.30;1.40;;;23.00;64.80;;;;;;5073891;28;20462;-58
2022/06/27 06:15:40;;;;;;;2.58;1.23;;;23.00;64.80;;;;;;5073663;28;20423;-58
2022/06/27 06:18:07;;;;;;;2.05;1.27;;;23.00;64.80;;;;;;5075109;28;20040;-59
2022/06/27 06:20:32;;;;;;;2.47;1.27;;;23.00;64.80;;;;;;5074256;28;20044;-59
2022/06/27 06:22:59;;;;;;;1.58;1.23;;;23.00;64.80;;;;;;5073146;28;20047;-59
2022/06/27 06:25:26;;;;;;;1.55;1.17;;;23.00;64.80;;;;;;5074754;28;20412;-59
2022/06/27 06:27:51;;;;;;;2.25;1.50;;;23.00;64.80;;;;;;5073897;28;20036;-59
2022/06/27 06:30:19;;;;;;;1.65;1.25;;;23.00;64.80;;;;;;5074619;28;20117;-59
2022/06/27 06:32:46;;;;;;;1.38;1.25;;;23.00;64.80;;;;;;5074583;28;20059;-59
2022/06/27 06:35:11;;;;;;;2.38;1.58;;;23.00;64.80;;;;;;5073945;28;20040;-59
2022/06/27 06:37:39;;;;;;;1.48;1.10;;;23.00;64.80;;;;;;5074593;28;20101;-58
2022/06/27 06:40:06;;;;;;;2.05;1.35;;;22.90;64.70;;;;;;5073053;28;20044;-59
2022/06/27 06:42:32;;;;;;;2.08;1.20;;;23.00;64.80;;;;;;5074578;28;20058;-59
2022/06/27 06:44:58;;;;;;;1.88;1.40;;;23.00;64.90;;;;;;5073956;28;20045;-59
2022/06/27 06:47:26;;;;;;;2.75;1.20;;;23.00;64.80;;;;;;5073603;28;20125;-59
2022/06/27 06:49:51;;;;;;;2.47;1.30;;;22.90;64.80;;;;;;5073862;28;20097;-59
2022/06/27 06:52:19;;;;;;;2.40;1.23;;;23.00;65.10;;;;;;5073948;28;20040;-59
2022/06/27 06:54:45;;;;;;;3.53;1.48;;;23.00;65.20;;;;;;5071997;28;20049;-59
2022/06/27 06:57:11;;;;;;;3.60;1.20;;;23.00;65.20;;;;;;5073962;28;20110;-59
2022/06/27 06:59:37;;;;;;;4.25;1.60;;;23.00;65.30;;;;;;5074160;28;20068;-59
2022/06/27 07:02:04;;;;;;;3.38;1.60;;;23.00;65.70;;;;;;5072949;28;20496;-59
2022/06/27 07:04:29;;;;;;;5.07;1.45;;;23.00;65.80;;;;;;5074110;28;20052;-59
2022/06/27 07:06:56;;;;;;;2.50;1.38;;;23.10;66.00;;;;;;5073501;28;20048;-59
2022/06/27 07:09:21;;;;;;;2.63;1.23;;;23.00;66.00;;;;;;5073128;28;20056;-58
2022/06/27 07:11:47;;;;;;;4.13;1.40;;;23.00;66.00;;;;;;5073608;28;20041;-58
2022/06/27 07:14:14;;;;;;;3.22;1.30;;;23.10;66.00;;;;;;5071808;28;20500;-59
2022/06/27 07:16:42;;;;;;;4.27;1.60;;;23.00;66.00;;;;;;5071158;28;20044;-58
2022/06/27 07:19:08;;;;;;;2.58;1.55;;;23.10;66.00;;;;;;5071990;28;20044;-58
2022/06/27 07:21:34;;;;;;;2.67;1.30;;;23.10;66.10;;;;;;5072823;28;20127;-58
2022/06/27 07:24:01;;;;;;;2.60;1.52;;;23.10;66.20;;;;;;5071863;28;20075;-58
2022/06/27 07:26:27;;;;;;;1.92;1.10;;;23.10;66.30;;;;;;5073691;28;20053;-58
2022/06/27 07:28:53;;;;;;;4.43;1.50;;;23.10;66.30;;;;;;5073567;28;20068;-59
2022/06/27 07:31:19;;;;;;;2.08;1.27;;;23.10;66.30;;;;;;5072631;28;20174;-59
2022/06/27 07:33:48;;;;;;;3.35;1.20;;;23.10;66.40;;;;;;5072657;28;20119;-58
2022/06/27 07:36:17;;;;;;;4.00;1.60;;;23.10;66.40;;;;;;5073141;28;20119;-58
2022/06/27 07:38:46;;;;;;;2.63;1.30;;;23.10;66.40;;;;;;5073169;28;20062;-59
2022/06/27 07:41:16;;;;;;;4.30;1.60;;;23.10;66.40;;;;;;5073157;28;20480;-58
2022/06/27 07:43:43;;;;;;;4.68;1.40;;;23.10;66.50;;;;;;5072184;28;20484;-58
2022/06/27 07:46:09;;;;;;;1.63;1.10;;;23.10;66.50;;;;;;5073283;28;20084;-58
2022/06/27 07:48:35;;;;;;;5.35;1.30;;;23.10;66.50;;;;;;5072849;28;20071;-59
2022/06/27 07:51:01;;;;;;;2.63;1.35;;;23.10;66.40;;;;;;5070519;28;20044;-59
2022/06/27 07:53:26;;;;;;;2.35;1.25;;;23.10;66.50;;;;;;5072848;28;20067;-59
2022/06/27 07:55:56;;;;;;;3.33;1.30;;;23.20;66.60;;;;;;5072291;28;20044;-59
2022/06/27 07:58:33;;;;;;;2.97;1.65;;;23.20;66.60;;;;;;5072220;28;20048;-60
2022/06/27 08:01:00;;;;;;;2.42;1.15;;;23.20;66.60;;;;;;5072655;28;20961;-60
2022/06/27 08:03:44;;;;;;;3.90;1.17;;;23.20;66.60;;;;;;5072912;28;20052;-60
2022/06/27 08:06:19;;;;;;;2.22;1.20;;;23.20;66.60;;;;;;5072339;28;20048;-60
2022/06/27 08:08:50;;;;;;;4.00;1.25;;;23.20;66.60;;;;;;5071963;28;20496;-60
2022/06/27 08:11:17;;;;;;;5.55;1.10;;;23.20;66.50;;;;;;5072619;28;20044;-59
2022/06/27 08:13:44;;;;;;;2.30;1.37;;;23.20;66.60;;;;;;5069212;28;20050;-60
2022/06/27 08:16:12;;;;;;;2.42;1.30;;;23.20;66.60;;;;;;5055604;28;20048;-60
2022/06/27 08:18:38;;;;;;;3.00;1.30;;;23.20;66.70;;;;;;5058207;28;20044;-59
2022/06/27 08:21:04;;;;;;;3.47;1.20;;;23.20;66.60;;;;;;5055861;28;20045;-59
2022/06/27 08:23:31;;;;;;;3.70;1.25;;;23.20;66.60;;;;;;5058410;28;20067;-58
2022/06/27 08:25:57;;;;;;;2.25;1.30;;;23.20;66.70;;;;;;5055594;28;20086;-59
2022/06/27 08:28:26;;;;;;;4.38;1.50;;;23.20;66.60;;;;;;5055930;28;20163;-59
2022/06/27 08:30:52;;;;;;;3.28;1.10;;;23.20;67.30;;;;;;5058189;28;20059;-59
2022/06/27 08:33:18;;;;;;;2.10;1.25;;;23.20;66.70;;;;;;5068728;28;20492;-59
2022/06/27 08:35:47;;;;;;;1.50;1.10;;;23.20;66.70;;;;;;5071942;28;20048;-60
2022/06/27 08:38:20;;;;;;;3.50;1.13;;;23.20;66.70;;;;;;5070847;28;20131;-59
2022/06/27 08:40:46;;;;;;;2.28;1.13;;;23.20;66.60;;;;;;5071553;28;20041;-59
2022/06/27 08:43:12;;;;;;;3.20;1.17;;;23.20;66.50;;;;;;5072690;28;20040;-59
2022/06/27 08:45:38;;;;;;;2.95;1.25;;;23.20;66.40;;;;;;5071092;28;20044;-59
2022/06/27 08:48:11;;;;;;;2.42;1.10;;;23.20;66.30;;;;;;5071558;28;20048;-59
2022/06/27 08:50:37;;;;;;;7.55;1.10;;;23.20;66.30;;;;;;5072341;28;20044;-59
2022/06/27 08:53:03;;;;;;;1.90;1.35;;;23.20;67.00;;;;;;5071918;28;20049;-59
2022/06/27 08:55:31;;;;;;;3.17;1.40;;;23.20;66.50;;;;;;5071784;28;20048;-59
2022/06/27 08:58:03;;;;;;;3.37;1.37;;;23.20;66.60;;;;;;5072056;28;20036;-59
2022/06/27 09:00:30;;;;;;;3.25;1.27;;;23.20;66.70;;;;;;5071305;28;20314;-59
2022/06/27 09:02:56;;;;;;;2.72;1.52;;;23.20;66.70;;;;;;5073113;28;20047;-59
2022/06/27 09:05:26;;;;;;;2.20;1.25;;;23.20;66.80;;;;;;5074825;28;20135;-61
2022/06/27 09:07:53;;;;;;;2.58;1.00;;;23.20;66.80;;;;;;5073796;28;20041;-60
2022/06/27 09:10:24;;;;;;;6.57;1.30;;;23.20;66.80;;;;;;5074212;28;20480;-60
2022/06/27 09:13:01;;;;;;;4.57;1.27;;;23.20;66.70;;;;;;5073453;28;20121;-59
2022/06/27 09:15:39;;;;;;;3.42;1.33;;;23.20;66.70;;;;;;5075069;28;20040;-59
2022/06/27 09:18:07;;;;;;;3.70;1.40;;;23.20;66.60;;;;;;5076659;28;20044;-60
2022/06/27 09:20:52;;;;;;;3.33;0.90;;;23.20;66.60;;;;;;5076220;28;20041;-60
2022/06/27 09:23:39;;;;;;;3.22;1.17;;;23.20;66.60;;;;;;5075318;28;20064;-60
2022/06/27 09:26:09;;;;;;;1.58;0.90;;;23.20;66.60;;;;;;5075640;28;20072;-60
2022/06/27 09:29:07;;;;;;;1.63;1.00;;;23.10;66.50;;;;;;5075732;28;20040;-60
2022/06/27 09:31:37;;;;;;;3.05;1.10;;;23.10;66.30;;;;;;5075548;28;20040;-60
2022/06/27 09:34:23;;;;;;;2.08;1.30;;;23.10;66.30;;;;;;5075327;28;20514;-60
2022/06/27 09:37:00;;;;;;;3.08;1.33;;;23.10;66.30;;;;;;5074747;28;20044;-60
2022/06/27 09:39:29;;;;;;;1.35;1.05;;;23.10;66.30;;;;;;5074357;28;20052;-58
2022/06/27 09:41:59;;;;;;;3.25;1.50;;;23.00;66.30;;;;;;5073916;28;20044;-58
2022/06/27 09:44:38;;;;;;;2.45;1.17;;;23.00;66.30;;;;;;5074793;28;20040;-58
2022/06/27 09:47:17;;;;;;;2.55;1.10;;;23.00;66.40;;;;;;5075172;28;20062;-58
2022/06/27 09:49:44;;;;;;;3.35;1.48;;;23.00;66.40;;;;;;5075209;28;20090;-58
2022/06/27 09:52:14;;;;;;;3.33;1.43;;;23.00;66.60;;;;;;5074752;28;20041;-59
2022/06/27 09:54:41;;;;;;;1.70;1.25;;;23.00;66.50;;;;;;5075758;28;20084;-59
2022/06/27 09:57:07;;;;;;;3.58;1.25;;;23.00;66.50;;;;;;5074566;28;20400;-58
2022/06/27 09:59:33;;;;;;;2.83;1.70;;;23.00;66.50;;;;;;5075426;28;20044;-58
2022/06/27 10:02:00;;;;;;;6.13;1.52;;;23.00;66.60;;;;;;5074924;28;20050;-59
2022/06/27 10:04:26;;;;;;;2.20;1.40;;;23.00;66.50;;;;;;5073311;28;20484;-58
2022/06/27 10:06:53;;;;;;;2.28;1.45;;;23.00;66.60;;;;;;5075127;28;20044;-59
2022/06/27 10:09:20;;;;;;;3.33;1.40;;;23.00;66.70;;;;;;5073701;28;20036;-61
2022/06/27 10:11:46;;;;;;;2.20;1.38;;;23.00;66.80;;;;;;5072795;28;20123;-58
2022/06/27 10:14:22;;;;;;;2.35;1.40;;;23.00;67.00;;;;;;5072717;28;20124;-60
2022/06/27 10:16:58;;;;;;;2.45;1.40;;;23.00;67.80;;;;;;5074134;28;20044;-59
2022/06/27 10:19:28;;;;;;;3.08;1.50;;;23.00;67.20;;;;;;5074362;28;20051;-59
2022/06/27 10:21:54;;;;;;;2.90;1.42;;;23.10;67.10;;;;;;5074645;28;20070;-59
2022/06/27 10:24:21;;;;;;;3.58;2.08;;;23.10;67.10;;;;;;5074622;28;20045;-59
2022/06/27 10:26:48;;;;;;;5.32;3.85;;;23.10;67.20;;;;;;5073702;28;20052;-60
2022/06/27 10:29:33;;;;;;;6.13;2.80;;;23.10;67.50;;;;;;5074517;28;20480;-59
2022/06/27 10:32:02;;;;;;;6.55;2.22;;;23.10;68.00;;;;;;5074268;28;20048;-59
2022/06/27 10:34:40;;;;;;;5.95;2.17;;;23.10;68.00;;;;;;5074230;28;20041;-59
2022/06/27 10:37:21;;;;;;;3.78;1.77;;;23.10;68.20;;;;;;5074645;28;20045;-59
2022/06/27 10:39:47;;;;;;;4.72;1.75;;;23.10;68.10;;;;;;5073729;28;20074;-60
2022/06/27 10:43:01;;;;;;;4.75;1.77;;;23.10;68.10;;;;;;5073013;28;20040;-59
2022/06/27 10:45:27;;;;;;;5.63;1.73;;;23.10;68.00;;;;;;5045103;28;20053;-59
2022/06/27 10:47:53;;;;;;;4.38;1.60;;;23.10;67.80;;;;;;5052973;28;20049;-59
2022/06/27 10:50:20;;;;;;;3.40;1.70;;;23.10;67.60;;;;;;5054525;28;20087;-59
2022/06/27 10:52:46;;;;;;;2.42;1.45;;;23.10;67.60;;;;;;5053985;28;20091;-59
2022/06/27 10:55:31;;;;;;;4.10;1.88;;;23.10;67.50;;;;;;5053768;28;20041;-60
2022/06/27 10:57:57;;;;;;;6.45;1.90;;;23.10;67.60;;;;;;5053066;28;20435;-58
2022/06/27 11:00:38;;;;;;;3.80;1.83;;;23.10;67.70;;;;;;5053281;28;20048;-57
2022/06/27 11:03:04;;;;;;;3.92;1.60;;;23.10;67.60;;;;;;5053742;28;20497;-57
2022/06/27 11:05:32;;;;;;;4.88;1.58;;;23.10;67.60;;;;;;5053821;28;20130;-57
2022/06/27 11:07:58;;;;;;;4.90;1.85;;;23.10;67.60;;;;;;5052861;28;20497;-57
2022/06/27 11:10:24;;;;;;;6.38;1.80;;;23.10;67.60;;;;;;5052647;28;20040;-60
2022/06/27 11:12:49;;;;;;;6.18;1.80;;;23.20;67.80;;;;;;5051680;28;20386;-60
2022/06/27 11:15:15;;;;;;;7.05;2.00;;;23.20;68.00;;;;;;5052515;28;20072;-60
2022/06/27 11:17:45;;;;;;;5.32;1.40;;;23.20;68.00;;;;;;5053142;28;20124;-60
2022/06/27 11:20:15;;;;;;;4.05;1.40;;;23.20;68.10;;;;;;5053812;28;20041;-60
2022/06/27 11:22:42;;;;;;;15.52;4.63;;;23.20;68.10;;;;;;5052590;28;20053;-61
2022/06/27 11:25:08;;;;;;;8.02;2.47;;;23.20;68.00;;;;;;5060821;28;20064;-60
2022/06/27 11:27:43;;;;;;;8.88;4.15;;;23.20;68.10;;;;;;5073132;28;20044;-59
2022/06/27 11:32:53;;;;;;;10.20;3.85;;;23.20;68.40;;;;;;5073496;28;20131;-60
2022/06/27 11:35:20;;;;;;;10.25;3.70;;;23.20;68.50;;;;;;5073308;28;20571;-60
2022/06/27 11:37:46;;;;;;;16.45;4.45;;;23.20;68.60;;;;;;5072499;28;20132;-60
2022/06/27 11:40:11;;;;;;;10.50;3.60;;;23.20;68.60;;;;;;5071962;28;20037;-61
2022/06/27 11:42:40;;;;;;;13.43;3.97;;;23.20;68.60;;;;;;5072713;28;20044;-60
2022/06/27 11:45:13;;;;;;;7.60;3.38;;;23.20;68.80;;;;;;5073172;28;20101;-60
2022/06/27 11:47:40;;;;;;;10.18;3.33;;;23.20;68.80;;;;;;5073012;28;20468;-60
2022/06/27 11:50:07;;;;;;;10.38;3.85;;;23.20;68.80;;;;;;5072407;28;20060;-61
2022/06/27 11:52:36;;;;;;;12.57;3.38;;;23.20;68.90;;;;;;5072985;28;20115;-60
2022/06/27 11:55:09;;;;;;;8.07;2.70;;;23.30;68.90;;;;;;5071142;28;20036;-60
2022/06/27 11:57:35;;;;;;;11.43;3.35;;;23.30;68.90;;;;;;5072253;28;20044;-60
2022/06/27 12:00:02;;;;;;;9.10;3.53;;;23.30;68.90;;;;;;5072441;28;20066;-60
2022/06/27 12:02:34;;;;;;;7.18;2.97;;;23.30;68.90;;;;;;5072871;28;20048;-61
2022/06/27 12:05:09;;;;;;;14.23;3.53;;;23.30;68.90;;;;;;5071121;28;20574;-60
2022/06/27 12:07:58;;;;;;;10.93;3.75;;;23.30;68.90;;;;;;5072598;28;20516;-60
2022/06/27 12:10:36;;;;;;;9.30;3.65;;;23.30;68.90;;;;;;5073114;28;20032;-60
2022/06/27 12:13:03;;;;;;;8.85;3.20;;;23.30;68.90;;;;;;5072733;28;20047;-60
2022/06/27 12:15:29;;;;;;;9.65;3.60;;;23.30;68.90;;;;;;5072556;28;20040;-61
2022/06/27 12:17:55;;;;;;;9.75;3.22;;;23.20;68.90;;;;;;5071838;28;20040;-60
2022/06/27 12:20:21;;;;;;;10.27;3.65;;;23.30;69.00;;;;;;5072650;28;20040;-60
2022/06/27 12:22:48;;;;;;;9.10;2.88;;;23.30;69.00;;;;;;5072330;28;20110;-60
2022/06/27 12:25:13;;;;;;;10.30;3.25;;;23.30;69.00;;;;;;5072250;28;20098;-60
2022/06/27 12:27:39;;;;;;;9.70;3.78;;;23.30;69.00;;;;;;5072856;28;20041;-60
2022/06/27 12:30:05;;;;;;;8.00;3.03;;;23.30;69.00;;;;;;5072053;28;20404;-60
2022/06/27 12:32:30;;;;;;;7.82;3.25;;;23.30;69.00;;;;;;5071296;28;20048;-60
2022/06/27 12:34:56;;;;;;;8.00;2.67;;;23.30;68.90;;;;;;5072259;28;20040;-60
2022/06/27 12:37:21;;;;;;;10.52;3.10;;;23.30;69.00;;;;;;5072301;28;20185;-60
2022/06/27 12:39:47;;;;;;;8.80;2.88;;;23.30;69.00;;;;;;5071429;28;20122;-60
2022/06/27 12:42:13;;;;;;;9.27;3.35;;;23.30;69.00;;;;;;5072791;28;20043;-60
2022/06/27 12:44:38;;;;;;;6.35;2.78;;;23.30;69.00;;;;;;5072113;28;20048;-60
2022/06/27 12:47:04;;;;;;;6.80;2.92;;;23.30;69.00;;;;;;5071150;28;20033;-61
2022/06/27 12:49:29;;;;;;;8.52;3.22;;;23.30;69.00;;;;;;5070840;28;20044;-62
2022/06/27 12:51:56;;;;;;;6.88;2.72;;;23.30;69.00;;;;;;5070465;28;20457;-63